createdAt,value
2019-05-11T00:01:24.340Z,99925.09
2019-05-11T00:04:27.922Z,99939.08
2019-05-11T00:07:31.521Z,99936.79
2019-05-11T00:10:35.024Z,99941.73
2019-05-11T00:13:38.434Z,99947.50
2019-05-11T00:16:44.893Z,99947.14
2019-05-11T00:19:48.490Z,99942.78
2019-05-11T00:22:52.014Z,99951.81
2019-05-11T00:25:55.494Z,99946.87
2019-05-11T00:28:59.013Z,99956.53
2019-05-11T00:32:02.498Z,99958.22
2019-05-11T00:35:06.943Z,99949.52
2019-05-11T00:38:10.487Z,99941.21
2019-05-11T00:41:13.940Z,99935.91
2019-05-11T00:44:17.539Z,99927.38
2019-05-11T00:47:21.029Z,99903.14
2019-05-11T00:50:38.043Z,99891.47
2019-05-11T00:53:30.071Z,99896.16
2019-05-11T00:56:33.695Z,99887.11
2019-05-11T00:59:38.325Z,99886.17
2019-05-11T01:02:41.823Z,99880.48
2019-05-11T01:05:46.367Z,99880.48
2019-05-11T01:08:49.750Z,99880.88
2019-05-11T01:11:53.161Z,99880.02
2019-05-11T01:14:56.647Z,99887.61
2019-05-11T01:18:00.132Z,99893.38
2019-05-11T01:21:04.820Z,99887.50
2019-05-11T01:24:08.290Z,99889.05
2019-05-11T01:27:12.715Z,99882.42
2019-05-11T01:30:16.190Z,99877.48
2019-05-11T01:33:20.697Z,99874.08
2019-05-11T01:36:24.112Z,99871.43
2019-05-11T01:39:27.713Z,99872.75
2019-05-11T01:42:33.270Z,99872.17
2019-05-11T01:45:37.793Z,99877.81
2019-05-11T01:48:43.213Z,99883.86
2019-05-11T01:51:46.837Z,99890.59
2019-05-11T01:54:51.487Z,99892.89
2019-05-11T01:57:56.088Z,99889.27
2019-05-11T02:01:00.612Z,99882.75
2019-05-11T02:04:04.032Z,99876.98
2019-05-11T02:07:07.615Z,99873.95
2019-05-11T02:10:11.149Z,99873.02
2019-05-11T02:13:14.556Z,99874.56
2019-05-11T02:16:18.116Z,99884.94
2019-05-11T02:19:21.629Z,99876.24
2019-05-11T02:22:25.121Z,99865.29
2019-05-11T02:25:28.654Z,99858.66
2019-05-11T02:28:34.030Z,99859.48
2019-05-11T02:31:37.458Z,99861.31
2019-05-11T02:34:40.879Z,99856.37
2019-05-11T02:37:44.457Z,99848.06
2019-05-11T02:40:47.999Z,99839.38
2019-05-11T02:43:53.545Z,99847.67
2019-05-11T02:46:57.022Z,99835.05
2019-05-11T02:50:00.873Z,99828.06
2019-05-11T02:53:04.477Z,99834.93
2019-05-11T02:56:08.000Z,99830.72
2019-05-11T02:59:11.439Z,99839.13
2019-05-11T03:02:14.928Z,99839.98
2019-05-11T03:05:18.430Z,99844.78
2019-05-11T03:08:21.921Z,99850.58
2019-05-11T03:11:25.450Z,99848.30
2019-05-11T03:14:28.958Z,99843.22
2019-05-11T03:17:34.211Z,99836.23
2019-05-11T03:20:37.785Z,99836.95
2019-05-11T03:23:42.294Z,99840.09
2019-05-11T03:26:45.802Z,99841.53
2019-05-11T03:29:49.306Z,99839.82
2019-05-11T03:32:52.792Z,99842.47
2019-05-11T03:35:57.335Z,99845.01
2019-05-11T03:39:00.820Z,99836.35
2019-05-11T03:42:13.846Z,99838.89
2019-05-11T03:45:09.713Z,99836.23
2019-05-11T03:48:17.272Z,99835.02
2019-05-11T03:51:20.705Z,99842.47
2019-05-11T03:54:24.202Z,99846.09
2019-05-11T03:57:27.701Z,99844.19
2019-05-11T04:00:31.119Z,99840.09
2019-05-11T04:03:34.577Z,99840.68
2019-05-11T04:06:38.089Z,99852.13
2019-05-11T04:09:42.513Z,99852.13
2019-05-11T04:12:45.909Z,99850.42
2019-05-11T04:15:49.433Z,99843.44
2019-05-11T04:18:52.895Z,99841.77
2019-05-11T04:21:56.319Z,99840.79
2019-05-11T04:24:59.931Z,99843.44
2019-05-11T04:28:03.310Z,99842.97
2019-05-11T04:31:06.716Z,99834.52
2019-05-11T04:34:11.239Z,99834.17
2019-05-11T04:37:15.098Z,99831.16
2019-05-11T04:40:18.573Z,99825.86
2019-05-11T04:43:21.988Z,99826.22
2019-05-11T04:46:25.445Z,99822.25
2019-05-11T04:49:28.932Z,99825.86
2019-05-11T04:52:32.360Z,99823.57
2019-05-11T04:55:35.915Z,99828.40
2019-05-11T04:58:39.344Z,99827.32
2019-05-11T05:01:42.931Z,99834.52
2019-05-11T05:04:46.347Z,99842.25
2019-05-11T05:07:50.701Z,99839.70
2019-05-11T05:10:58.761Z,99834.30
2019-05-11T05:14:02.151Z,99823.70
2019-05-11T05:17:04.744Z,99808.89
2019-05-11T05:20:09.259Z,99807.09
2019-05-11T05:23:12.818Z,99814.07
2019-05-11T05:26:16.262Z,99811.42
2019-05-11T05:29:20.788Z,99809.74
2019-05-11T05:32:24.302Z,99805.27
2019-05-11T05:35:29.845Z,99805.16
2019-05-11T05:38:33.355Z,99802.50
2019-05-11T05:41:36.851Z,99801.57
2019-05-11T05:44:40.342Z,99797.59
2019-05-11T05:47:43.856Z,99795.53
2019-05-11T05:50:47.346Z,99793.84
2019-05-11T05:53:51.874Z,99790.58
2019-05-11T05:56:55.378Z,99787.11
2019-05-11T05:59:58.880Z,99778.66
2019-05-11T06:03:02.389Z,99779.05
2019-05-11T06:06:05.881Z,99777.73
2019-05-11T06:09:09.391Z,99771.45
2019-05-11T06:12:12.880Z,99768.06
2019-05-11T06:15:16.378Z,99767.13
2019-05-11T06:18:19.877Z,99765.41
2019-05-11T06:21:23.377Z,99775.08
2019-05-11T06:24:26.880Z,99765.80
2019-05-11T06:27:31.464Z,99764.48
2019-05-11T06:30:34.816Z,99767.13
2019-05-11T06:33:38.406Z,99768.06
2019-05-11T06:36:42.935Z,99756.53
2019-05-11T06:39:46.428Z,99752.91
2019-05-11T06:42:49.947Z,99756.38
2019-05-11T06:45:53.424Z,99741.70
2019-05-11T06:48:57.841Z,99741.11
2019-05-11T06:52:01.475Z,99738.81
2019-05-11T06:55:04.903Z,99730.40
2019-05-11T06:58:08.362Z,99729.31
2019-05-11T07:01:11.774Z,99728.22
2019-05-11T07:04:16.391Z,99731.84
2019-05-11T07:07:20.914Z,99723.78
2019-05-11T07:10:24.502Z,99721.48
2019-05-11T07:13:28.031Z,99721.48
2019-05-11T07:16:31.526Z,99724.02
2019-05-11T07:19:34.955Z,99728.84
2019-05-11T07:22:38.355Z,99729.08
2019-05-11T07:25:41.835Z,99729.44
2019-05-11T07:28:51.168Z,99723.66
2019-05-11T07:31:54.753Z,99727.17
2019-05-11T07:34:59.207Z,99717.52
2019-05-11T07:38:02.702Z,99718.37
2019-05-11T07:41:08.618Z,99724.88
2019-05-11T07:44:11.432Z,99723.55
2019-05-11T07:47:14.915Z,99719.22
2019-05-11T07:50:18.423Z,99715.60
2019-05-11T07:53:21.928Z,99720.90
2019-05-11T07:56:28.465Z,99722.58
2019-05-11T07:59:31.812Z,99716.81
2019-05-11T08:02:35.320Z,99723.31
2019-05-11T08:05:38.792Z,99725.97
2019-05-11T08:08:42.347Z,99729.44
2019-05-11T08:11:47.821Z,99735.01
2019-05-11T08:15:02.910Z,99732.95
2019-05-11T08:17:58.032Z,99729.20
2019-05-11T08:21:01.636Z,99733.69
2019-05-11T08:24:06.159Z,99737.66
2019-05-11T08:27:09.664Z,99743.31
2019-05-11T08:30:14.196Z,99744.28
2019-05-11T08:33:18.307Z,99751.84
2019-05-11T08:36:21.797Z,99757.54
2019-05-11T08:39:25.306Z,99748.73
2019-05-11T08:42:29.121Z,99750.17
2019-05-11T08:45:32.730Z,99756.92
2019-05-11T08:48:38.633Z,99758.24
2019-05-11T08:51:41.549Z,99765.26
2019-05-11T08:54:45.049Z,99766.08
2019-05-11T08:57:48.571Z,99762.46
2019-05-11T09:00:53.081Z,99762.34
2019-05-11T09:03:58.357Z,99761.52
2019-05-11T09:07:01.937Z,99760.08
2019-05-11T09:10:08.151Z,99761.41
2019-05-11T09:13:11.825Z,99761.02
2019-05-11T09:16:15.809Z,99756.45
2019-05-11T09:19:20.228Z,99754.28
2019-05-11T09:22:23.851Z,99756.81
2019-05-11T09:25:27.826Z,99753.69
2019-05-11T09:28:31.346Z,99744.53
2019-05-11T09:31:35.437Z,99743.55
2019-05-11T09:34:38.960Z,99737.78
2019-05-11T09:37:45.530Z,99733.92
2019-05-11T09:40:50.060Z,99731.28
2019-05-11T09:43:53.571Z,99733.81
2019-05-11T09:47:02.210Z,99731.16
2019-05-11T09:50:03.471Z,99739.97
2019-05-11T09:53:08.529Z,99739.58
2019-05-11T09:56:12.284Z,99743.55
2019-05-11T09:59:17.890Z,99752.25
2019-05-11T10:02:21.251Z,99753.58
2019-05-11T10:05:24.862Z,99752.59
2019-05-11T10:08:28.780Z,99756.58
2019-05-11T10:11:33.260Z,99757.44
2019-05-11T10:14:37.980Z,99760.55
2019-05-11T10:17:42.716Z,99766.83
2019-05-11T10:20:48.126Z,99763.20
2019-05-11T10:23:51.352Z,99760.55
2019-05-11T10:26:57.771Z,99749.48
2019-05-11T10:30:01.223Z,99747.30
2019-05-11T10:33:04.743Z,99746.33
2019-05-11T10:36:08.443Z,99752.02
2019-05-11T10:39:12.063Z,99749.36
2019-05-11T10:42:17.856Z,99750.07
2019-05-11T10:45:20.988Z,99738.64
2019-05-11T10:48:24.498Z,99742.12
2019-05-11T10:51:28.828Z,99738.64
2019-05-11T10:54:33.533Z,99723.56
2019-05-11T10:57:38.708Z,99720.79
2019-05-11T11:00:42.381Z,99705.98
2019-05-11T11:03:48.117Z,99709.36
2019-05-11T11:06:52.268Z,99691.16
2019-05-11T11:09:57.967Z,99686.21
2019-05-11T11:13:01.917Z,99677.28
2019-05-11T11:16:05.417Z,99663.56
2019-05-11T11:19:08.926Z,99666.68
2019-05-11T11:22:35.446Z,99658.61
2019-05-11T11:25:18.683Z,99650.18
2019-05-11T11:28:28.024Z,99649.20
2019-05-11T11:31:31.813Z,99650.18
2019-05-11T11:34:38.313Z,99639.58
2019-05-11T11:37:41.592Z,99635.95
2019-05-11T11:40:48.150Z,99639.93
2019-05-11T11:43:53.715Z,99635.36
2019-05-11T11:46:59.208Z,99628.86
2019-05-11T11:50:09.200Z,99620.05
2019-05-11T11:53:12.836Z,99616.80
2019-05-11T11:56:18.918Z,99619.45
2019-05-11T11:59:22.499Z,99616.45
2019-05-11T12:02:27.930Z,99616.80
2019-05-11T12:05:31.146Z,99614.16
2019-05-11T12:08:34.629Z,99619.80
2019-05-11T12:11:39.150Z,99613.17
2019-05-11T12:14:42.653Z,99618.48
2019-05-11T12:17:48.109Z,99621.13
2019-05-11T12:20:51.300Z,99621.98
2019-05-11T12:23:54.798Z,99630.41
2019-05-11T12:26:58.832Z,99622.45
2019-05-11T12:30:02.450Z,99619.10
2019-05-11T12:33:08.103Z,99620.43
2019-05-11T12:36:11.261Z,99623.91
2019-05-11T12:39:14.782Z,99619.58
2019-05-11T12:42:18.415Z,99618.25
2019-05-11T12:45:22.010Z,99618.13
2019-05-11T12:48:25.481Z,99616.07
2019-05-11T12:51:29.997Z,99619.58
2019-05-11T12:54:34.512Z,99620.43
2019-05-11T12:57:38.576Z,99627.53
2019-05-11T13:00:42.336Z,99625.73
2019-05-11T13:03:45.946Z,99628.27
2019-05-11T13:06:49.452Z,99634.89
2019-05-11T13:09:55.003Z,99637.39
2019-05-11T13:12:58.516Z,99640.42
2019-05-11T13:16:02.011Z,99636.06
2019-05-11T13:19:05.496Z,99639.09
2019-05-11T13:22:10.020Z,99637.77
2019-05-11T13:25:13.582Z,99630.29
2019-05-11T13:28:17.958Z,99625.38
2019-05-11T13:31:21.551Z,99629.81
2019-05-11T13:34:26.983Z,99636.45
2019-05-11T13:37:30.226Z,99624.42
2019-05-11T13:40:33.705Z,99632.38
2019-05-11T13:43:38.590Z,99628.49
2019-05-11T13:46:42.099Z,99625.38
2019-05-11T13:49:47.787Z,99629.81
2019-05-11T13:52:50.972Z,99620.16
2019-05-11T13:55:54.482Z,99618.27
2019-05-11T13:59:07.582Z,99611.64
2019-05-11T14:02:11.300Z,99618.03
2019-05-11T14:05:14.805Z,99618.88
2019-05-11T14:08:18.720Z,99619.35
2019-05-11T14:11:22.426Z,99617.05
2019-05-11T14:14:28.799Z,99620.44
2019-05-11T14:17:32.508Z,99613.45
2019-05-11T14:20:37.899Z,99612.48
2019-05-11T14:23:41.579Z,99601.11
2019-05-11T14:26:45.079Z,99609.80
2019-05-11T14:29:48.828Z,99610.27
2019-05-11T14:32:52.455Z,99615.10
2019-05-11T14:35:57.894Z,99616.08
2019-05-11T14:39:01.474Z,99616.78
2019-05-11T14:42:04.924Z,99617.16
2019-05-11T14:45:08.680Z,99625.12
2019-05-11T14:48:22.883Z,99629.80
2019-05-11T14:51:18.154Z,99633.18
2019-05-11T14:54:21.763Z,99625.22
2019-05-11T14:57:27.736Z,99628.81
2019-05-11T15:00:30.548Z,99613.64
2019-05-11T15:03:34.014Z,99620.50
2019-05-11T15:06:38.635Z,99621.35
2019-05-11T15:09:48.338Z,99627.13
2019-05-11T15:12:51.885Z,99623.41
2019-05-11T15:15:55.673Z,99623.02
2019-05-11T15:18:59.103Z,99638.00
2019-05-11T15:22:02.629Z,99645.20
2019-05-11T15:25:08.047Z,99651.11
2019-05-11T15:28:12.682Z,99647.00
2019-05-11T15:31:22.137Z,99647.12
2019-05-11T15:34:22.546Z,99647.98
2019-05-11T15:37:28.438Z,99646.66
2019-05-11T15:40:32.191Z,99649.19
2019-05-11T15:43:35.641Z,99648.81
2019-05-11T15:46:39.231Z,99647.14
2019-05-11T15:49:42.838Z,99643.52
2019-05-11T15:52:48.508Z,99635.91
2019-05-11T15:55:51.559Z,99627.59
2019-05-11T15:58:55.063Z,99623.11
2019-05-11T16:01:58.563Z,99617.44
2019-05-11T16:05:02.087Z,99625.77
2019-05-11T16:08:08.365Z,99635.06
2019-05-11T16:11:11.760Z,99642.27
2019-05-11T16:14:15.224Z,99645.39
2019-05-11T16:17:18.801Z,99661.07
2019-05-11T16:20:22.207Z,99674.58
2019-05-11T16:23:28.243Z,99671.58
2019-05-11T16:26:30.978Z,99672.91
2019-05-11T16:29:34.581Z,99680.86
2019-05-11T16:32:39.119Z,99684.50
2019-05-11T16:35:42.591Z,99685.83
2019-05-11T16:38:48.342Z,99686.17
2019-05-11T16:41:52.930Z,99693.16
2019-05-11T16:44:57.732Z,99695.69
2019-05-11T16:48:01.328Z,99707.41
2019-05-11T16:51:04.827Z,99725.63
2019-05-11T16:54:08.315Z,99730.58
2019-05-11T16:57:11.815Z,99736.59
2019-05-11T17:00:15.355Z,99742.25
2019-05-11T17:03:18.822Z,99751.53
2019-05-11T17:06:22.322Z,99750.20
2019-05-11T17:09:25.847Z,99752.39
2019-05-11T17:12:29.352Z,99751.92
2019-05-11T17:15:33.861Z,99761.55
2019-05-11T17:18:37.365Z,99768.06
2019-05-11T17:21:42.917Z,99774.23
2019-05-11T17:24:48.310Z,99768.06
2019-05-11T17:27:52.579Z,99772.52
2019-05-11T17:30:58.663Z,99774.11
2019-05-11T17:34:01.214Z,99777.70
2019-05-11T17:37:04.698Z,99769.27
2019-05-11T17:40:08.983Z,99761.31
2019-05-11T17:43:12.744Z,99763.62
2019-05-11T17:46:18.459Z,99772.63
2019-05-11T17:49:22.156Z,99781.92
2019-05-11T17:52:28.116Z,99788.20
2019-05-11T17:55:31.869Z,99789.88
2019-05-11T17:58:37.732Z,99802.20
2019-05-11T18:01:41.530Z,99812.20
2019-05-11T18:04:45.037Z,99815.48
2019-05-11T18:07:48.565Z,99832.34
2019-05-11T18:10:51.980Z,99838.03
2019-05-11T18:13:55.829Z,99844.79
2019-05-11T18:16:59.459Z,99850.92
2019-05-11T18:20:14.641Z,99863.13
2019-05-11T18:23:08.459Z,99870.70
2019-05-11T18:26:11.986Z,99880.61
2019-05-11T18:29:15.493Z,99891.23
2019-05-11T18:32:18.989Z,99904.85
2019-05-11T18:35:22.678Z,99913.78
2019-05-11T18:38:27.670Z,99918.35
2019-05-11T18:41:32.204Z,99927.17
2019-05-11T18:44:37.818Z,99930.41
2019-05-11T18:47:40.989Z,99940.91
2019-05-11T18:50:45.589Z,99937.43
2019-05-11T18:53:50.049Z,99944.42
2019-05-11T18:56:53.459Z,99950.55
2019-05-11T18:59:58.742Z,99959.48
2019-05-11T19:03:02.204Z,99967.09
2019-05-11T19:06:05.721Z,99974.08
2019-05-11T19:09:09.213Z,99976.73
2019-05-11T19:12:13.718Z,99977.94
2019-05-11T19:15:18.750Z,99979.73
2019-05-11T19:18:22.772Z,99977.08
2019-05-11T19:21:26.176Z,99972.75
2019-05-11T19:24:29.777Z,99972.75
2019-05-11T19:27:34.211Z,99977.23
2019-05-11T19:30:38.319Z,99975.52
2019-05-11T19:33:45.462Z,99979.26
2019-05-11T19:36:48.507Z,99981.56
2019-05-11T19:39:52.242Z,99987.80
2019-05-11T19:42:59.151Z,99983.47
2019-05-11T19:46:02.905Z,99994.44
2019-05-11T19:49:08.541Z,99984.80
2019-05-11T19:52:11.855Z,99986.59
2019-05-11T19:55:17.368Z,99999.03
2019-05-11T19:58:20.772Z,100002.04
2019-05-11T20:01:24.334Z,100019.40
2019-05-11T20:04:28.344Z,100021.94
2019-05-11T20:07:32.223Z,100027.25
2019-05-11T20:10:38.126Z,100035.20
2019-05-11T20:13:40.942Z,100054.75
2019-05-11T20:16:44.476Z,100054.81
2019-05-11T20:19:53.907Z,100064.75
2019-05-11T20:22:58.483Z,100069.33
2019-05-11T20:26:03.183Z,100081.23
2019-05-11T20:29:08.190Z,100091.22
2019-05-11T20:32:11.930Z,100104.70
2019-05-11T20:35:15.401Z,100106.64
2019-05-11T20:38:19.028Z,100117.36
2019-05-11T20:41:22.650Z,100126.42
2019-05-11T20:44:28.447Z,100135.17
2019-05-11T20:47:31.339Z,100141.23
2019-05-11T20:50:34.875Z,100152.16
2019-05-11T20:53:38.883Z,100155.67
2019-05-11T20:56:42.354Z,100154.92
2019-05-11T20:59:45.767Z,100166.00
2019-05-11T21:02:49.322Z,100170.48
2019-05-11T21:05:52.700Z,100178.05
2019-05-11T21:08:56.164Z,100180.09
2019-05-11T21:12:02.909Z,100182.48
2019-05-11T21:15:07.792Z,100190.44
2019-05-11T21:18:11.261Z,100193.92
2019-05-11T21:21:14.776Z,100201.16
2019-05-11T21:24:18.745Z,100207.11
2019-05-11T21:27:22.391Z,100204.45
2019-05-11T21:30:25.899Z,100215.17
2019-05-11T21:33:30.418Z,100220.97
2019-05-11T21:36:34.938Z,100231.18
2019-05-11T21:39:39.455Z,100231.78
2019-05-11T21:42:44.030Z,100241.79
2019-05-11T21:45:49.531Z,100249.38
2019-05-11T21:48:53.034Z,100253.83
2019-05-11T21:52:04.541Z,100261.52
2019-05-11T21:55:02.910Z,100269.12
2019-05-11T21:58:08.871Z,100263.45
2019-05-11T22:01:11.473Z,100260.91
2019-05-11T22:04:14.925Z,100268.25
2019-05-11T22:07:23.227Z,100266.31
2019-05-11T22:10:28.119Z,100269.22
2019-05-11T22:13:30.876Z,100278.24
2019-05-11T22:16:34.373Z,100285.80
2019-05-11T22:19:40.246Z,100294.09
2019-05-11T22:22:43.015Z,100304.96
2019-05-11T22:25:47.555Z,100319.64
2019-05-11T22:28:51.861Z,100327.80
2019-05-11T22:31:57.693Z,100329.39
2019-05-11T22:35:00.897Z,100340.39
2019-05-11T22:38:04.407Z,100346.36
2019-05-11T22:41:09.097Z,100349.87
2019-05-11T22:44:12.636Z,100357.72
2019-05-11T22:47:17.826Z,100364.81
2019-05-11T22:50:21.426Z,100364.45
2019-05-11T22:53:24.859Z,100369.36
2019-05-11T22:56:28.613Z,100376.09
2019-05-11T22:59:32.190Z,100381.02
2019-05-11T23:02:37.958Z,100388.52
2019-05-11T23:05:42.915Z,100389.94
2019-05-11T23:08:48.343Z,100386.82
2019-05-11T23:11:51.707Z,100395.23
2019-05-11T23:15:11.003Z,100405.58
2019-05-11T23:18:18.006Z,100405.67
2019-05-11T23:21:21.591Z,100421.28
2019-05-11T23:24:25.018Z,100445.14
2019-05-11T23:27:28.660Z,100459.72
2019-05-11T23:30:35.264Z,100466.34
2019-05-11T23:33:39.783Z,100467.67
2019-05-11T23:36:43.270Z,100477.91
2019-05-11T23:39:47.971Z,100481.52
2019-05-11T23:42:51.736Z,100480.66
2019-05-11T23:45:55.228Z,100486.45
2019-05-11T23:48:58.723Z,100492.67
2019-05-11T23:52:02.217Z,100495.73
2019-05-11T23:55:08.197Z,100507.66
2019-05-11T23:58:12.493Z,100507.16
